Time;durP1;ratioP1;P1;durP2;ratioP2;P2;SDS_P1;SDS_P2;PMS_P1;PMS_P2;Temp;Humidity;BMP_temperature;BMP_pressure;BME280_temperature;BME280_humidity;BME280_pressure;Samples;Min_cycle;Max_cycle;Signal;HPM_P1;HPM_P2
2021/07/12 00:02:04;;;;;;;12.40;11.30;;;;;;;20.87;82.46;99306.45;1717264;83;21469;-70
2021/07/12 00:04:32;;;;;;;15.10;11.65;;;;;;;20.85;82.20;99306.58;1717168;83;20927;-70
2021/07/12 00:07:00;;;;;;;12.55;9.95;;;;;;;20.85;82.02;99304.42;1717119;83;20985;-70
2021/07/12 00:09:27;;;;;;;12.75;9.85;;;;;;;20.85;81.79;99307.06;1717080;83;21034;-70
2021/07/12 00:11:53;;;;;;;12.15;11.05;;;;;;;20.82;81.75;99300.23;1717399;83;20974;-70
2021/07/12 00:14:22;;;;;;;16.90;11.38;;;;;;;20.81;81.52;99302.52;1717164;83;20927;-70
2021/07/12 00:16:50;;;;;;;12.18;10.72;;;;;;;20.79;81.40;99302.30;1717500;83;20954;-70
2021/07/12 00:19:18;;;;;;;11.53;10.38;;;;;;;20.77;81.41;99294.53;1717077;83;21164;-70
2021/07/12 00:21:46;;;;;;;11.93;10.28;;;;;;;20.75;81.47;99301.75;1717179;83;21485;-70
2021/07/12 00:24:14;;;;;;;12.82;11.60;;;;;;;20.73;81.55;99303.69;1717247;83;21046;-70
2021/07/12 00:26:42;;;;;;;12.10;10.90;;;;;;;20.72;81.43;99295.88;1717125;83;20947;-70
2021/07/12 00:29:09;;;;;;;12.20;10.95;;;;;;;20.68;81.42;99293.98;1717372;83;21438;-70
2021/07/12 00:31:37;;;;;;;11.38;10.25;;;;;;;20.65;81.50;99299.53;1717173;83;20974;-70
2021/07/12 00:34:03;;;;;;;12.63;10.38;;;;;;;20.62;81.59;99288.73;1717585;83;21042;-70
2021/07/12 00:36:30;;;;;;;11.70;10.60;;;;;;;20.60;81.79;99285.37;1717348;83;21415;-70
2021/07/12 00:38:57;;;;;;;11.08;9.98;;;;;;;20.58;81.80;99286.50;1717278;83;21026;-70
2021/07/12 00:41:25;;;;;;;11.53;10.35;;;;;;;20.54;81.86;99279.32;1717323;83;21546;-70
2021/07/12 00:43:51;;;;;;;11.33;10.15;;;;;;;20.51;82.05;99278.26;1717205;83;21265;-70
2021/07/12 00:46:18;;;;;;;11.48;10.48;;;;;;;20.49;82.14;99286.80;1717236;83;20938;-70
2021/07/12 00:48:46;;;;;;;13.20;11.95;;;;;;;20.46;82.30;99287.05;1717124;83;21022;-70
2021/07/12 00:51:13;;;;;;;14.23;11.38;;;;;;;20.44;82.41;99286.34;1717168;83;21081;-70
2021/07/12 00:53:40;;;;;;;11.12;10.13;;;;;;;20.41;82.52;99287.91;1717234;83;20990;-70
2021/07/12 00:56:08;;;;;;;11.75;10.55;;;;;;;20.40;82.43;99288.05;1717909;82;21200;-70
2021/07/12 00:58:35;;;;;;;11.65;10.50;;;;;;;20.37;82.29;99287.01;1733042;82;21051;-68
2021/07/12 01:01:05;;;;;;;13.22;11.03;;;;;;;20.31;82.51;99277.77;1708452;82;21034;-68
2021/07/12 01:03:32;;;;;;;13.00;11.63;;;;;;;20.28;82.73;99283.30;1732978;82;20963;-70
2021/07/12 01:05:58;;;;;;;11.63;9.98;;;;;;;20.24;82.88;99290.63;1732980;82;20967;-69
2021/07/12 01:08:25;;;;;;;14.98;11.53;;;;;;;20.21;82.94;99289.56;1733016;82;21218;-69
2021/07/12 01:11:31;;;;;;;12.13;11.10;;;;;;;20.19;83.11;99287.53;1731881;82;21034;-68
2021/07/12 01:14:07;;;;;;;12.03;10.88;;;;;;;20.16;83.25;99292.27;1701620;82;21003;-68
2021/07/12 01:16:39;;;;;;;13.22;12.03;;;;;;;20.10;83.61;99296.24;1733101;82;21097;-68
2021/07/12 01:19:24;;;;;;;12.75;11.40;;;;;;;20.08;83.70;99297.33;1733123;82;21010;-68
2021/07/12 01:22:30;;;;;;;11.00;9.73;;;;;;;20.04;83.92;99292.78;1733109;82;21396;-68
2021/07/12 01:25:22;;;;;;;11.65;10.55;;;;;;;20.02;84.11;99289.91;1703444;81;20995;-68
2021/07/12 01:27:57;;;;;;;12.28;11.18;;;;;;;19.98;84.29;99292.00;1733027;82;20947;-68
2021/07/12 01:31:05;;;;;;;14.95;12.07;;;;;;;19.95;84.45;99284.33;1733060;82;21035;-68
2021/07/12 01:34:14;;;;;;;12.18;10.93;;;;;;;19.93;84.47;99284.45;1733301;82;20951;-69
2021/07/12 01:37:02;;;;;;;11.18;10.08;;;;;;;19.92;85.18;99286.73;1733045;82;21088;-70
2021/07/12 01:39:36;;;;;;;13.00;11.48;;;;;;;19.92;85.57;99278.81;1706888;82;20975;-70
2021/07/12 01:42:13;;;;;;;13.80;11.88;;;;;;;19.92;85.71;99276.66;1719863;82;20983;-70
2021/07/12 01:45:01;;;;;;;13.55;12.07;;;;;;;19.92;85.74;99272.22;1732326;82;20959;-70
2021/07/12 01:48:00;;;;;;;12.40;11.28;;;;;;;19.92;85.74;99274.86;1732991;82;20987;-70
2021/07/12 01:50:56;;;;;;;11.20;9.83;;;;;;;19.91;85.89;99269.22;1733152;82;22000;-68
2021/07/12 01:53:47;;;;;;;12.15;10.45;;;;;;;19.88;85.85;99279.19;1732900;82;21089;-70
2021/07/12 01:56:37;;;;;;;11.65;10.45;;;;;;;19.84;85.73;99283.87;1733071;82;21086;-69
2021/07/12 01:59:14;;;;;;;11.60;10.38;;;;;;;19.80;85.65;99277.17;1732901;82;21061;-69
2021/07/12 02:01:41;;;;;;;14.15;10.48;;;;;;;19.76;85.63;99277.09;1733073;82;20939;-68
2021/07/12 02:04:09;;;;;;;15.05;10.25;;;;;;;19.74;85.64;99284.30;1732925;81;21156;-69
2021/07/12 02:06:39;;;;;;;12.88;9.85;;;;;;;19.73;85.55;99285.25;1707874;82;21062;-69
2021/07/12 02:09:11;;;;;;;11.85;10.78;;;;;;;19.72;85.47;99283.58;1733304;82;20940;-69
2021/07/12 02:11:44;;;;;;;17.00;11.88;;;;;;;19.71;85.38;99284.54;1732958;82;21041;-68
2021/07/12 02:14:19;;;;;;;11.95;10.85;;;;;;;19.72;85.17;99285.37;1733355;82;20999;-69
2021/07/12 02:16:51;;;;;;;11.45;10.32;;;;;;;19.72;85.06;99286.70;1733154;82;21819;-69
2021/07/12 02:19:19;;;;;;;14.03;10.93;;;;;;;19.72;84.88;99284.89;1733422;82;20995;-69
2021/07/12 02:21:51;;;;;;;13.30;11.08;;;;;;;19.71;84.93;99286.34;1731675;82;21439;-69
2021/07/12 02:24:23;;;;;;;12.80;11.70;;;;;;;19.70;85.11;99288.14;1731740;82;21011;-69
2021/07/12 02:26:50;;;;;;;11.65;10.53;;;;;;;19.71;85.04;99290.30;1733084;82;21424;-69
2021/07/12 02:29:17;;;;;;;11.95;10.80;;;;;;;19.71;84.91;99292.94;1732894;82;21541;-69
2021/07/12 02:31:44;;;;;;;11.25;10.18;;;;;;;19.71;85.01;99285.02;1732826;82;21022;-69
2021/07/12 02:34:11;;;;;;;12.55;11.20;;;;;;;19.74;85.09;99292.21;1732904;82;21034;-69
2021/07/12 02:36:39;;;;;;;12.70;11.60;;;;;;;19.82;85.20;99296.84;1732717;82;20967;-69
2021/07/12 02:39:08;;;;;;;13.35;10.63;;;;;;;19.99;85.08;99296.28;1733158;82;21015;-69
2021/07/12 02:41:36;;;;;;;11.53;10.32;;;;;;;20.21;84.56;99288.73;1732882;82;21822;-69
2021/07/12 02:44:04;;;;;;;12.65;10.20;;;;;;;20.47;83.94;99291.85;1732843;82;21038;-69
2021/07/12 02:46:31;;;;;;;10.43;9.30;;;;;;;20.73;83.49;99289.14;1684621;82;20952;-69
2021/07/12 02:48:58;;;;;;;11.95;10.70;;;;;;;21.01;82.72;99294.18;1708276;82;21015;-69
2021/07/12 02:51:45;;;;;;;11.90;10.28;;;;;;;21.27;81.57;99288.80;1733132;82;21479;-69
2021/07/12 02:54:14;;;;;;;11.05;10.23;;;;;;;21.56;80.69;99286.71;1733369;82;21121;-69
2021/07/12 02:56:41;;;;;;;11.20;10.08;;;;;;;21.88;79.51;99287.27;1732844;82;20971;-69
2021/07/12 02:59:08;;;;;;;10.70;9.80;;;;;;;22.15;78.18;99286.60;1692184;84;20969;-69
2021/07/12 03:01:35;;;;;;;11.55;10.38;;;;;;;22.40;76.76;99280.33;1692244;84;21481;-69
2021/07/12 03:04:03;;;;;;;12.40;11.30;;;;;;;22.71;75.49;99278.30;1692003;84;37178;-70
2021/07/12 03:06:33;;;;;;;10.75;9.85;;;;;;;23.06;73.90;99278.45;1692252;84;21881;-70
2021/07/12 03:09:10;;;;;;;11.03;10.13;;;;;;;23.42;72.57;99277.19;1692120;84;20993;-70
2021/07/12 03:11:49;;;;;;;13.03;10.78;;;;;;;23.77;71.20;99273.28;1692166;84;21442;-70
2021/07/12 03:14:44;;;;;;;17.67;11.48;;;;;;;24.13;69.46;99270.59;1692347;83;21029;-69
2021/07/12 03:17:16;;;;;;;12.43;11.12;;;;;;;24.48;67.99;99266.53;1692021;84;21037;-69
2021/07/12 03:19:44;;;;;;;13.10;11.70;;;;;;;24.86;66.57;99269.73;1666345;84;21970;-69
2021/07/12 03:22:11;;;;;;;11.88;10.55;;;;;;;25.19;65.30;99266.22;1692022;84;21005;-69
2021/07/12 03:24:41;;;;;;;10.40;9.35;;;;;;;25.52;63.87;99265.83;1690921;84;20945;-70
2021/07/12 03:27:11;;;;;;;10.43;9.43;;;;;;;25.84;62.37;99267.72;1692141;84;21013;-70
2021/07/12 03:29:39;;;;;;;10.38;9.38;;;;;;;26.09;61.22;99276.05;1692410;84;21540;-70
2021/07/12 03:32:08;;;;;;;12.10;10.93;;;;;;;26.34;60.25;99272.07;1692106;84;21037;-70
2021/07/12 03:34:34;;;;;;;11.50;10.55;;;;;;;26.59;59.89;99276.83;1692478;83;21021;-70
2021/07/12 03:37:02;;;;;;;11.60;10.45;;;;;;;26.88;59.09;99275.77;1692344;84;21422;-70
2021/07/12 03:39:30;;;;;;;9.83;8.90;;;;;;;27.21;57.96;99276.47;1692293;83;21410;-70
2021/07/12 03:41:57;;;;;;;25.27;12.07;;;;;;;27.52;56.82;99281.83;1692051;84;21021;-70
2021/07/12 03:44:25;;;;;;;11.10;9.88;;;;;;;27.79;55.70;99279.16;1692507;84;21426;-70
2021/07/12 03:46:54;;;;;;;9.55;8.70;;;;;;;28.08;54.84;99278.44;1692011;84;21466;-70
2021/07/12 03:49:22;;;;;;;12.55;9.20;;;;;;;28.36;53.61;99275.55;1692071;84;21034;-70
2021/07/12 03:51:52;;;;;;;16.32;10.03;;;;;;;28.63;52.72;99271.41;1692121;83;20994;-69
2021/07/12 03:54:19;;;;;;;10.95;9.93;;;;;;;28.95;51.75;99271.59;1692099;84;21437;-70
2021/07/12 03:56:45;;;;;;;17.15;9.90;;;;;;;29.24;51.07;99264.00;1692099;84;21163;-70
2021/07/12 03:59:11;;;;;;;10.48;8.80;;;;;;;29.58;50.59;99260.69;1717083;82;20915;-70
2021/07/12 04:01:39;;;;;;;12.07;9.93;;;;;;;29.92;49.06;99256.50;1719653;83;20959;-69
2021/07/12 04:04:05;;;;;;;10.93;9.00;;;;;;;30.20;48.68;99255.20;1719777;83;21058;-70
2021/07/12 04:06:31;;;;;;;10.05;9.15;;;;;;;30.47;47.79;99256.55;1719728;83;20982;-70
2021/07/12 04:08:59;;;;;;;9.83;8.83;;;;;;;30.74;46.61;99260.26;1719770;83;21958;-70
2021/07/12 04:11:34;;;;;;;9.75;8.85;;;;;;;30.87;46.33;99266.20;1719580;83;20994;-70
2021/07/12 04:14:00;;;;;;;11.05;8.65;;;;;;;31.05;46.26;99270.52;1719988;83;21395;-69
2021/07/12 04:16:26;;;;;;;10.18;9.15;;;;;;;31.31;45.09;99266.32;1719833;83;21014;-69
2021/07/12 04:18:53;;;;;;;10.45;9.40;;;;;;;31.41;44.69;99260.03;1719767;83;20955;-71
2021/07/12 04:21:19;;;;;;;12.78;10.90;;;;;;;31.59;44.29;99260.28;1719754;83;21824;-69
2021/07/12 04:23:47;;;;;;;10.80;9.58;;;;;;;31.85;43.53;99255.50;1719549;83;21040;-70
2021/07/12 04:26:13;;;;;;;10.20;9.28;;;;;;;32.10;42.52;99254.37;1719667;83;21423;-70
2021/07/12 04:28:40;;;;;;;11.28;8.95;;;;;;;32.27;42.21;99252.95;1719599;83;20994;-69
2021/07/12 04:31:06;;;;;;;10.85;9.20;;;;;;;32.30;41.99;99249.84;1720066;83;21542;-69
2021/07/12 04:33:33;;;;;;;15.48;10.03;;;;;;;32.35;41.77;99244.67;1719613;83;21082;-70
2021/07/12 04:36:00;;;;;;;11.65;9.33;;;;;;;32.49;41.64;99244.12;1719511;83;21738;-70
2021/07/12 04:38:26;;;;;;;10.45;9.38;;;;;;;32.71;41.51;99239.30;1719690;83;21010;-69
2021/07/12 04:40:53;;;;;;;12.13;9.80;;;;;;;32.86;40.59;99238.03;1720054;83;20975;-69
2021/07/12 04:43:19;;;;;;;12.80;9.23;;;;;;;32.99;40.66;99236.31;1719733;83;21426;-68
2021/07/12 04:45:47;;;;;;;13.70;9.68;;;;;;;33.14;40.35;99235.55;1719697;83;21034;-69
2021/07/12 04:48:14;;;;;;;12.50;10.40;;;;;;;33.28;40.02;99242.55;1719573;83;21034;-69
2021/07/12 04:50:40;;;;;;;10.75;9.75;;;;;;;33.35;40.16;99243.35;1719665;83;21427;-70
2021/07/12 04:53:08;;;;;;;12.03;9.60;;;;;;;33.41;39.83;99244.33;1719699;83;20998;-70
2021/07/12 04:55:35;;;;;;;11.40;10.30;;;;;;;33.36;39.84;99243.66;1723380;82;21063;-70
2021/07/12 04:58:03;;;;;;;14.83;9.53;;;;;;;33.28;39.76;99247.94;1733091;82;21887;-69
2021/07/12 05:00:31;;;;;;;11.43;9.30;;;;;;;33.39;39.92;99249.11;1742160;81;21000;-69
2021/07/12 05:02:58;;;;;;;11.08;10.05;;;;;;;33.48;39.66;99245.13;1729068;82;21550;-70
2021/07/12 05:05:25;;;;;;;16.95;10.30;;;;;;;33.60;39.21;99248.78;1724425;82;21042;-70
2021/07/12 05:07:51;;;;;;;11.03;10.10;;;;;;;33.61;39.34;99247.73;1741446;82;20964;-70
2021/07/12 05:10:17;;;;;;;11.73;9.68;;;;;;;33.63;38.80;99239.43;1746720;82;21143;-70
2021/07/12 05:12:44;;;;;;;10.05;9.20;;;;;;;33.73;38.30;99257.32;1723667;82;21037;-70
2021/07/12 05:15:12;;;;;;;13.28;9.73;;;;;;;33.83;37.71;99242.32;1744579;82;20951;-70
2021/07/12 05:17:39;;;;;;;15.88;9.23;;;;;;;33.83;37.49;99259.86;1746819;82;20951;-70
2021/07/12 05:20:07;;;;;;;10.40;9.08;;;;;;;33.78;37.41;99247.54;1725661;82;21031;-69
2021/07/12 05:22:34;;;;;;;10.18;9.30;;;;;;;33.68;37.16;99253.09;1747150;82;21107;-69
2021/07/12 05:25:04;;;;;;;10.75;9.55;;;;;;;33.49;37.61;99254.35;1743551;82;20954;-69
2021/07/12 05:27:30;;;;;;;12.75;9.40;;;;;;;33.35;37.70;99251.95;1719621;82;21654;-69
2021/07/12 05:29:57;;;;;;;12.98;9.83;;;;;;;33.26;38.05;99252.72;1702871;83;20978;-69
2021/07/12 05:32:23;;;;;;;10.10;9.40;;;;;;;33.15;38.32;99254.20;1717165;82;20963;-69
2021/07/12 05:34:51;;;;;;;10.90;9.80;;;;;;;33.14;38.72;99257.94;1717102;83;21094;-69
2021/07/12 05:37:17;;;;;;;12.23;9.78;;;;;;;33.26;38.62;99256.76;1717310;83;21001;-69
2021/07/12 05:39:43;;;;;;;11.60;9.63;;;;;;;33.38;38.49;99256.37;1717846;82;20955;-69
2021/07/12 05:42:10;;;;;;;9.68;8.88;;;;;;;33.49;38.01;99252.18;1717408;82;20955;-69
2021/07/12 05:44:37;;;;;;;10.25;9.20;;;;;;;33.60;38.11;99256.86;1730022;82;21038;-69
2021/07/12 05:47:06;;;;;;;9.45;8.65;;;;;;;33.75;38.02;99257.41;1683851;85;21202;-69
2021/07/12 05:49:32;;;;;;;9.93;8.98;;;;;;;33.95;37.72;99253.25;1744347;82;20939;-69
2021/07/12 05:51:59;;;;;;;9.78;8.90;;;;;;;34.14;37.04;99256.83;1738573;82;20954;-69
2021/07/12 05:54:25;;;;;;;10.53;9.45;;;;;;;34.33;36.90;99259.91;1746927;82;21041;-69
2021/07/12 05:56:52;;;;;;;12.35;9.33;;;;;;;34.54;36.69;99260.84;1747132;82;20999;-68
2021/07/12 05:59:18;;;;;;;11.18;9.68;;;;;;;34.71;36.51;99271.05;1748681;81;21792;-69
2021/07/12 06:01:44;;;;;;;9.98;9.08;;;;;;;34.76;36.55;99265.81;1728196;82;22269;-70
2021/07/12 06:04:11;;;;;;;10.20;9.23;;;;;;;34.66;36.75;99262.78;1744367;82;21517;-69
2021/07/12 06:06:37;;;;;;;11.35;10.20;;;;;;;34.43;37.15;99268.30;1731567;82;21002;-70
2021/07/12 06:09:04;;;;;;;17.95;9.88;;;;;;;34.18;37.53;99268.28;1719767;82;21470;-70
2021/07/12 06:11:32;;;;;;;11.85;9.35;;;;;;;33.94;37.95;99269.66;1725113;82;21726;-70
2021/07/12 06:13:58;;;;;;;10.68;9.78;;;;;;;33.73;38.81;99272.16;1736125;82;21011;-70
2021/07/12 06:16:26;;;;;;;11.93;9.80;;;;;;;33.53;38.82;99270.41;1743789;82;21157;-70
2021/07/12 06:18:53;;;;;;;10.95;9.48;;;;;;;33.28;39.25;99271.38;1683165;83;21013;-70
2021/07/12 06:21:20;;;;;;;13.32;9.35;;;;;;;33.06;39.93;99268.11;1701343;84;20974;-64
2021/07/12 06:23:46;;;;;;;8.90;8.18;;;;;;;32.94;39.93;99269.83;1692084;83;21153;-66
2021/07/12 06:26:13;;;;;;;18.07;8.95;;;;;;;32.82;40.10;99269.64;1677850;84;21081;-67
2021/07/12 06:28:39;;;;;;;10.82;9.88;;;;;;;32.74;40.38;99264.50;1680710;85;21032;-66
2021/07/12 06:31:06;;;;;;;12.33;8.50;;;;;;;32.77;40.36;99266.78;1688196;84;21034;-66
2021/07/12 06:33:32;;;;;;;12.15;8.85;;;;;;;32.76;39.97;99268.64;1701480;83;21494;-66
2021/07/12 06:35:58;;;;;;;14.65;9.33;;;;;;;32.61;40.06;99265.83;1674955;85;21775;-66
2021/07/12 06:38:25;;;;;;;11.65;8.88;;;;;;;32.37;40.19;99267.34;1668908;85;21101;-67
2021/07/12 06:40:51;;;;;;;9.60;8.73;;;;;;;32.07;40.89;99266.89;1690864;83;21022;-68
2021/07/12 06:43:18;;;;;;;10.60;9.63;;;;;;;31.84;41.33;99261.91;1684725;85;21481;-67
2021/07/12 06:45:46;;;;;;;10.35;9.33;;;;;;;31.71;42.09;99269.97;1681417;84;21071;-67
2021/07/12 06:48:12;;;;;;;11.25;8.50;;;;;;;31.61;42.46;99267.63;1683521;83;22389;-66
2021/07/12 06:50:40;;;;;;;9.53;8.63;;;;;;;31.56;42.53;99265.26;1670300;84;21037;-67
2021/07/12 06:53:06;;;;;;;9.83;9.03;;;;;;;31.38;43.13;99267.98;1660390;85;21042;-66
2021/07/12 06:55:34;;;;;;;10.82;9.45;;;;;;;31.16;43.95;99271.34;1670413;83;21638;-66
2021/07/12 06:58:04;;;;;;;11.88;9.53;;;;;;;30.96;44.71;99266.36;1668022;84;21086;-66
2021/07/12 07:00:31;;;;;;;12.53;9.15;;;;;;;30.80;45.24;99268.84;1675752;85;21549;-66
2021/07/12 07:03:01;;;;;;;10.80;9.70;;;;;;;30.72;45.48;99266.85;1673771;83;21108;-66
2021/07/12 07:05:28;;;;;;;13.65;9.28;;;;;;;30.67;45.71;99266.09;1689097;82;21554;-67
2021/07/12 07:07:56;;;;;;;9.65;8.70;;;;;;;30.65;46.01;99267.31;1743099;80;21061;-66
2021/07/12 07:10:23;;;;;;;9.95;9.03;;;;;;;30.68;45.74;99266.92;1731488;82;21431;-68
2021/07/12 07:12:52;;;;;;;9.70;8.70;;;;;;;30.72;45.92;99262.83;1717152;83;21435;-67
2021/07/12 07:15:18;;;;;;;9.50;8.60;;;;;;;30.86;46.22;99272.59;1718720;82;20979;-68
2021/07/12 07:17:45;;;;;;;9.83;9.00;;;;;;;30.97;46.10;99275.25;1717744;82;21038;-68
2021/07/12 07:20:14;;;;;;;9.03;7.92;;;;;;;31.02;45.79;99276.29;1717085;82;21018;-67
2021/07/12 07:22:40;;;;;;;12.10;8.23;;;;;;;31.11;45.26;99267.59;1717013;83;21021;-66
2021/07/12 07:25:10;;;;;;;9.83;8.13;;;;;;;31.20;44.34;99264.20;1727999;82;21081;-66
2021/07/12 07:27:39;;;;;;;10.95;6.58;;;;;;;31.32;43.99;99270.16;1727726;82;21033;-65
2021/07/12 07:30:09;;;;;;;8.30;6.70;;;;;;;31.41;43.57;99273.47;1721114;80;20986;-67
2021/07/12 07:32:35;;;;;;;7.50;6.83;;;;;;;31.45;43.21;99270.18;1738472;82;20985;-66
2021/07/12 07:35:03;;;;;;;7.30;6.70;;;;;;;31.47;42.40;99268.64;1724569;82;21057;-67
2021/07/12 07:37:30;;;;;;;7.80;7.15;;;;;;;31.48;42.60;99268.44;1715900;83;21148;-64
2021/07/12 07:39:56;;;;;;;7.50;6.87;;;;;;;31.56;42.87;99264.75;1717838;82;21002;-65
2021/07/12 07:42:23;;;;;;;66.80;10.72;;;;;;;31.69;42.74;99275.55;1716054;83;21032;-67
2021/07/12 07:44:50;;;;;;;8.75;6.92;;;;;;;31.77;42.90;99275.37;1716975;83;20958;-67
2021/07/12 07:47:16;;;;;;;9.48;7.35;;;;;;;31.75;42.53;99273.39;1721918;82;21062;-67
2021/07/12 07:51:13;;;;;;;7.35;6.83;;;;;;;31.69;41.45;99275.55;1746509;82;20975;-67
2021/07/12 07:53:38;;;;;;;8.13;7.53;;;;;;;31.54;41.78;99267.32;1738587;82;21006;-66
2021/07/12 07:56:05;;;;;;;9.00;6.95;;;;;;;31.40;43.11;99263.23;1733039;82;21069;-67
2021/07/12 07:58:33;;;;;;;10.18;7.08;;;;;;;31.42;42.95;99261.69;1734226;82;21501;-67
2021/07/12 08:01:01;;;;;;;9.23;7.45;;;;;;;31.49;42.53;99263.89;1719638;83;20994;-66
2021/07/12 08:03:27;;;;;;;8.38;6.95;;;;;;;31.50;42.27;99271.75;1719517;83;21137;-65
2021/07/12 08:05:54;;;;;;;12.88;7.12;;;;;;;31.42;42.03;99274.61;1719523;83;20981;-68
2021/07/12 08:08:21;;;;;;;8.30;7.45;;;;;;;31.29;41.94;99270.55;1729126;82;20963;-65
2021/07/12 08:10:50;;;;;;;8.45;7.72;;;;;;;31.10;42.97;99272.10;1743561;82;21065;-65
2021/07/12 08:13:16;;;;;;;9.55;7.70;;;;;;;30.96;43.56;99265.02;1734194;82;22157;-67
2021/07/12 08:15:43;;;;;;;13.00;7.50;;;;;;;30.87;43.87;99266.20;1681028;85;22599;-66
2021/07/12 08:18:11;;;;;;;11.00;7.62;;;;;;;30.83;44.82;99271.14;1683646;85;21135;-67
2021/07/12 08:20:39;;;;;;;14.98;8.85;;;;;;;30.90;44.76;99263.13;1683934;85;20971;-67
2021/07/12 08:23:06;;;;;;;10.30;9.33;;;;;;;31.00;44.13;99264.91;1699592;84;21058;-67
2021/07/12 08:25:33;;;;;;;12.47;8.43;;;;;;;31.04;44.88;99264.83;1683811;85;20979;-66
2021/07/12 08:27:59;;;;;;;10.58;8.08;;;;;;;31.04;43.42;99267.52;1699820;84;21825;-66
2021/07/12 08:30:25;;;;;;;8.00;7.20;;;;;;;30.97;43.97;99261.83;1683621;85;21614;-67
2021/07/12 08:32:52;;;;;;;8.38;7.42;;;;;;;30.94;44.08;99282.36;1699677;84;20963;-67
2021/07/12 08:35:18;;;;;;;7.65;7.05;;;;;;;30.82;42.62;99256.56;1684772;85;20989;-68
2021/07/12 08:37:49;;;;;;;11.30;6.95;;;;;;;30.69;43.51;99261.87;1673168;85;21101;-70
2021/07/12 08:40:14;;;;;;;8.90;6.97;;;;;;;30.61;43.83;99257.98;1685246;83;21171;-67
2021/07/12 08:42:41;;;;;;;13.60;7.03;;;;;;;30.54;43.33;99252.57;1691799;83;21677;-67
2021/07/12 08:45:09;;;;;;;14.87;7.62;;;;;;;30.46;44.01;99246.83;1679329;85;21067;-68
2021/07/12 08:47:36;;;;;;;7.47;6.67;;;;;;;30.37;44.24;99253.39;1697939;84;21014;-65
2021/07/12 08:50:05;;;;;;;8.20;7.25;;;;;;;30.30;44.56;99244.97;1658850;85;21618;-65
2021/07/12 08:52:32;;;;;;;8.13;6.97;;;;;;;30.27;44.32;99243.50;1699892;84;21117;-66
2021/07/12 08:54:58;;;;;;;14.90;6.70;;;;;;;30.29;44.49;99241.97;1683882;85;21058;-68
2021/07/12 08:57:25;;;;;;;16.87;7.60;;;;;;;30.33;44.54;99241.90;1699510;84;21074;-67
2021/07/12 08:59:56;;;;;;;8.30;5.42;;;;;;;30.36;44.47;99243.68;1676502;85;20999;-67
2021/07/12 09:02:23;;;;;;;35.38;7.70;;;;;;;30.40;44.13;99243.58;1735689;82;21121;-66
2021/07/12 09:04:53;;;;;;;11.43;6.37;;;;;;;30.40;44.76;99243.58;1670275;86;21158;-67
2021/07/12 09:07:24;;;;;;;6.67;5.72;;;;;;;30.38;44.37;99251.51;1735855;82;21007;-65
2021/07/12 09:10:09;;;;;;;10.45;6.45;;;;;;;30.31;45.44;99252.83;1661782;85;21157;-74
2021/07/12 09:12:51;;;;;;;11.95;6.55;;;;;;;30.24;45.54;99250.59;1641265;86;22282;-67
2021/07/12 09:15:23;;;;;;;9.33;6.12;;;;;;;30.18;46.12;99251.36;1708138;84;21096;-67
2021/07/12 09:17:52;;;;;;;7.67;6.05;;;;;;;30.14;45.96;99244.24;1708952;82;21103;-67
2021/07/12 09:20:30;;;;;;;10.90;6.50;;;;;;;30.14;45.86;99245.59;1710425;82;21579;-67
2021/07/12 09:22:58;;;;;;;7.10;6.28;;;;;;;30.13;46.13;99254.66;1712952;83;21543;-68
2021/07/12 09:25:30;;;;;;;7.12;6.55;;;;;;;30.15;46.09;99243.73;1716418;83;21438;-67
2021/07/12 09:27:56;;;;;;;10.68;7.22;;;;;;;30.22;46.74;99241.08;1716514;83;21052;-66
2021/07/12 09:30:23;;;;;;;8.08;6.95;;;;;;;30.29;46.72;99248.16;1716424;83;21777;-67
2021/07/12 09:32:54;;;;;;;12.25;6.50;;;;;;;30.33;46.02;99241.90;1716477;82;21406;-67
2021/07/12 09:35:21;;;;;;;10.23;6.83;;;;;;;30.35;46.50;99250.07;1716810;83;21437;-68
2021/07/12 09:38:00;;;;;;;8.35;7.05;;;;;;;30.38;45.61;99246.14;1716353;82;20989;-67
2021/07/12 09:40:27;;;;;;;6.50;5.90;;;;;;;30.41;45.82;99247.09;1716480;83;21016;-68
2021/07/12 09:42:54;;;;;;;7.25;6.55;;;;;;;30.48;45.59;99249.32;1716351;83;22359;-67
2021/07/12 09:45:22;;;;;;;6.65;5.95;;;;;;;30.50;45.05;99244.59;1716299;82;20945;-67
2021/07/12 09:47:51;;;;;;;6.75;6.12;;;;;;;30.49;45.44;99236.22;1716358;83;21456;-68
2021/07/12 09:50:20;;;;;;;7.55;6.50;;;;;;;30.52;45.17;99231.80;1716415;83;21002;-67
2021/07/12 09:52:53;;;;;;;12.70;6.78;;;;;;;30.55;45.17;99231.45;1716350;82;21048;-67
2021/07/12 09:55:30;;;;;;;6.50;5.95;;;;;;;30.58;45.26;99228.34;1716473;83;21784;-67
2021/07/12 09:58:14;;;;;;;8.93;6.70;;;;;;;30.63;45.31;99231.27;1716347;83;21505;-67
2021/07/12 10:00:48;;;;;;;6.90;6.12;;;;;;;30.61;44.43;99226.61;1734976;82;21445;-67
2021/07/12 10:03:21;;;;;;;7.25;6.37;;;;;;;30.61;44.96;99224.44;1740638;82;21425;-68
2021/07/12 10:05:48;;;;;;;6.97;6.35;;;;;;;30.60;45.16;99219.58;1741834;81;20964;-67
2021/07/12 10:08:16;;;;;;;6.22;5.72;;;;;;;30.65;45.34;99214.97;1742168;82;22005;-68
2021/07/12 10:10:44;;;;;;;7.10;6.33;;;;;;;30.71;45.80;99212.33;1741980;82;20981;-67
2021/07/12 10:13:13;;;;;;;7.62;5.90;;;;;;;30.78;45.38;99210.99;1742004;82;20988;-67
2021/07/12 10:15:39;;;;;;;6.87;6.12;;;;;;;30.82;45.25;99217.11;1742025;82;21008;-68
2021/07/12 10:18:06;;;;;;;6.65;6.12;;;;;;;30.83;44.94;99216.09;1742162;81;21035;-67
2021/07/12 10:20:35;;;;;;;6.67;6.17;;;;;;;30.87;45.36;99213.84;1742427;81;21178;-66
2021/07/12 10:23:04;;;;;;;7.58;6.83;;;;;;;30.94;45.57;99212.02;1742127;82;20948;-66
2021/07/12 10:25:33;;;;;;;7.42;6.65;;;;;;;31.02;44.14;99206.45;1742358;82;20960;-67
2021/07/12 10:28:06;;;;;;;8.85;6.37;;;;;;;31.05;44.87;99215.97;1742144;82;20969;-67
2021/07/12 10:30:40;;;;;;;7.45;6.83;;;;;;;31.12;45.66;99198.89;1738965;82;21008;-67
2021/07/12 10:33:11;;;;;;;6.60;6.20;;;;;;;31.18;44.91;99203.43;1717093;83;21135;-67
2021/07/12 10:35:57;;;;;;;7.62;6.62;;;;;;;31.24;44.46;99205.00;1717531;82;20986;-68
2021/07/12 10:38:28;;;;;;;9.15;7.28;;;;;;;31.26;44.34;99209.66;1716964;83;20938;-66
2021/07/12 10:40:58;;;;;;;7.03;6.50;;;;;;;31.31;44.63;99209.37;1717229;83;21042;-67
2021/07/12 10:43:47;;;;;;;8.95;8.25;;;;;;;31.37;44.30;99215.80;1717685;83;21062;-67
2021/07/12 10:46:30;;;;;;;8.20;7.40;;;;;;;31.39;44.06;99201.11;1717073;83;21538;-68
2021/07/12 10:49:30;;;;;;;7.77;7.07;;;;;;;31.39;44.73;99209.69;1717401;83;21487;-66
2021/07/12 10:51:57;;;;;;;6.92;6.37;;;;;;;31.35;44.11;99192.34;1716810;83;20991;-67
2021/07/12 10:54:24;;;;;;;6.87;6.40;;;;;;;31.30;43.45;99183.53;1717141;83;20963;-66
2021/07/12 10:56:56;;;;;;;7.72;7.03;;;;;;;31.25;44.18;99184.66;1697023;83;20966;-67
2021/07/12 10:59:33;;;;;;;6.67;6.07;;;;;;;31.21;44.25;99178.53;1717175;82;21936;-67
2021/07/12 11:02:21;;;;;;;8.33;6.65;;;;;;;31.22;43.66;99168.94;1717009;83;20951;-66
2021/07/12 11:05:05;;;;;;;7.87;7.10;;;;;;;31.25;43.20;99175.77;1717702;83;21002;-65
2021/07/12 11:07:45;;;;;;;6.95;6.42;;;;;;;31.32;44.24;99182.81;1699428;83;20966;-66
2021/07/12 11:10:26;;;;;;;7.25;6.75;;;;;;;31.31;44.50;99163.69;1711238;83;21006;-67
2021/07/12 11:13:02;;;;;;;7.03;6.40;;;;;;;31.20;45.74;99164.79;1784078;80;21007;-65
2021/07/12 11:15:32;;;;;;;8.68;6.87;;;;;;;31.09;45.73;99168.36;1788997;80;21063;-66
2021/07/12 11:18:21;;;;;;;7.90;6.78;;;;;;;30.97;46.05;99159.25;1711125;83;20948;-68
2021/07/12 11:20:56;;;;;;;8.83;6.70;;;;;;;30.98;45.43;99162.22;1791446;80;21451;-68
2021/07/12 11:23:45;;;;;;;7.42;6.70;;;;;;;31.07;45.55;99152.97;1791267;80;20988;-67
2021/07/12 11:26:30;;;;;;;10.53;7.55;;;;;;;31.22;45.45;99150.64;1791139;80;21228;-67
2021/07/12 11:29:18;;;;;;;7.87;7.20;;;;;;;31.26;45.33;99141.97;1791282;80;21392;-67
2021/07/12 11:32:07;;;;;;;8.93;7.42;;;;;;;31.21;45.53;99146.30;1731905;80;21025;-66
2021/07/12 11:34:49;;;;;;;8.08;7.42;;;;;;;31.02;46.53;99133.93;1712773;80;21092;-66
2021/07/12 11:37:21;;;;;;;8.40;7.65;;;;;;;30.82;47.17;99135.22;1713736;83;21046;-67
2021/07/12 11:39:52;;;;;;;9.18;8.38;;;;;;;30.70;47.73;99136.02;1717426;83;21103;-68
2021/07/12 11:42:35;;;;;;;10.13;8.93;;;;;;;30.62;47.63;99126.27;1725442;80;21330;-66
2021/07/12 11:45:16;;;;;;;9.65;8.70;;;;;;;30.54;47.49;99141.70;1748411;80;22146;-66